createdAt,value
2018-06-23T00:01:49.643Z,11.80
2018-06-23T00:04:24.080Z,11.80
2018-06-23T00:06:58.595Z,11.80
2018-06-23T00:09:33.014Z,11.80
2018-06-23T00:12:07.374Z,11.50
2018-06-23T00:14:41.800Z,11.50
2018-06-23T00:17:16.057Z,11.40
2018-06-23T00:19:50.314Z,11.40
2018-06-23T00:22:24.565Z,11.20
2018-06-23T00:24:59.298Z,11.20
2018-06-23T00:27:33.497Z,11.20
2018-06-23T00:32:41.760Z,11.30
2018-06-23T00:35:16.064Z,11.40
2018-06-23T00:40:24.641Z,11.40
2018-06-23T00:42:59.112Z,11.40
2018-06-23T00:45:33.607Z,11.30
2018-06-23T00:48:08.043Z,11.40
2018-06-23T00:50:42.393Z,11.40
2018-06-23T00:58:25.107Z,11.40
2018-06-23T01:00:59.531Z,11.40
2018-06-23T01:03:33.868Z,11.50
2018-06-23T01:06:08.203Z,11.50
2018-06-23T01:08:42.694Z,11.50
2018-06-23T01:11:17.284Z,11.60
2018-06-23T01:13:51.751Z,11.50
2018-06-23T01:16:26.083Z,11.50
2018-06-23T01:19:00.472Z,11.40
2018-06-23T01:24:09.094Z,11.30
2018-06-23T01:26:43.647Z,11.40
2018-06-23T01:29:18.008Z,11.50
2018-06-23T01:34:26.710Z,11.40
2018-06-23T01:37:01.036Z,11.50
2018-06-23T01:39:35.525Z,11.40
2018-06-23T01:42:09.909Z,11.40
2018-06-23T01:44:44.337Z,11.30
2018-06-23T01:47:18.684Z,11.20
2018-06-23T01:49:53.049Z,11.20
2018-06-23T01:52:27.425Z,11.20
2018-06-23T01:55:02.010Z,11.20
2018-06-23T02:00:10.408Z,11.20
2018-06-23T02:02:44.773Z,11.30
2018-06-23T02:05:19.163Z,11.20
2018-06-23T02:10:27.754Z,11.30
2018-06-23T02:13:02.306Z,11.20
2018-06-23T02:15:42.080Z,11.10
2018-06-23T02:18:21.923Z,11.10
2018-06-23T02:21:01.724Z,11.10
2018-06-23T02:23:41.357Z,10.90
2018-06-23T02:26:21.051Z,10.80
2018-06-23T02:31:40.380Z,11.00
2018-06-23T02:34:19.958Z,11.00
2018-06-23T02:36:54.310Z,10.90
2018-06-23T02:42:02.747Z,11.00
2018-06-23T02:47:11.206Z,11.00
2018-06-23T02:49:45.567Z,11.10
2018-06-23T02:52:19.989Z,11.10
2018-06-23T02:57:28.719Z,11.00
2018-06-23T03:00:03.135Z,10.90
2018-06-23T03:05:11.816Z,10.90
2018-06-23T03:07:46.241Z,10.80
2018-06-23T03:10:20.593Z,10.70
2018-06-23T03:12:55.022Z,10.70
2018-06-23T03:15:29.399Z,10.60
2018-06-23T03:18:03.779Z,10.70
2018-06-23T03:20:38.124Z,10.70
2018-06-23T03:23:12.549Z,10.60
2018-06-23T03:28:20.923Z,10.60
2018-06-23T03:30:55.286Z,10.50
2018-06-23T03:33:29.683Z,10.40
2018-06-23T03:38:38.027Z,10.40
2018-06-23T03:41:12.256Z,10.50
2018-06-23T03:43:46.629Z,10.50
2018-06-23T03:46:20.875Z,10.50
2018-06-23T03:48:55.886Z,10.50
2018-06-23T03:51:30.206Z,10.50
2018-06-23T03:54:04.528Z,10.40
2018-06-23T03:56:38.814Z,10.30
2018-06-23T04:01:47.322Z,9.70
2018-06-23T04:04:21.781Z,9.90
2018-06-23T04:06:56.166Z,10.00
2018-06-23T04:09:30.583Z,10.00
2018-06-23T04:12:04.845Z,10.10
2018-06-23T04:14:39.141Z,10.20
2018-06-23T04:17:13.387Z,10.20
2018-06-23T04:19:47.843Z,10.20
2018-06-23T04:22:22.173Z,10.30
2018-06-23T04:24:56.580Z,10.50
2018-06-23T04:27:30.922Z,10.60
2018-06-23T04:30:05.357Z,10.70
2018-06-23T04:32:40.050Z,10.70
2018-06-23T04:35:14.490Z,10.60
2018-06-23T04:37:48.896Z,10.70
2018-06-23T04:40:23.095Z,10.70
2018-06-23T04:42:57.435Z,10.80
2018-06-23T04:45:31.856Z,10.90
2018-06-23T04:48:06.302Z,11.00
2018-06-23T04:50:40.681Z,11.10
2018-06-23T04:55:49.553Z,11.10
2018-06-23T04:58:23.968Z,11.20
2018-06-23T05:00:58.417Z,11.30
2018-06-23T05:03:32.715Z,11.40
2018-06-23T05:06:07.481Z,11.40
2018-06-23T05:08:41.886Z,11.00
2018-06-23T05:11:16.351Z,11.10
2018-06-23T05:16:25.236Z,11.10
2018-06-23T05:18:59.641Z,10.80
2018-06-23T05:21:33.934Z,11.00
2018-06-23T05:24:08.316Z,10.60
2018-06-23T05:29:16.798Z,10.60
2018-06-23T05:31:51.238Z,10.60
2018-06-23T05:34:25.618Z,11.00
2018-06-23T05:36:59.934Z,11.30
2018-06-23T05:44:42.648Z,11.90
2018-06-23T05:47:17.093Z,12.10
2018-06-23T05:49:51.564Z,12.30
2018-06-23T05:55:00.243Z,12.70
2018-06-23T05:57:34.495Z,12.90
2018-06-23T06:02:42.806Z,13.00
2018-06-23T06:05:17.336Z,12.90
2018-06-23T06:07:51.535Z,12.50
2018-06-23T06:13:00.043Z,12.70
2018-06-23T06:18:08.535Z,13.10
2018-06-23T06:20:42.818Z,13.30
2018-06-23T06:25:51.220Z,13.20
2018-06-23T06:28:25.682Z,13.00
2018-06-23T06:31:00.093Z,13.10
2018-06-23T06:33:34.309Z,13.40
2018-06-23T06:38:42.609Z,14.00
2018-06-23T06:41:16.958Z,14.00
2018-06-23T06:43:51.497Z,13.30
2018-06-23T06:46:25.850Z,13.50
2018-06-23T06:51:34.162Z,14.00
2018-06-23T06:54:08.453Z,14.30
2018-06-23T06:56:42.828Z,14.60
2018-06-23T06:59:17.434Z,14.60
2018-06-23T07:04:25.776Z,14.50
2018-06-23T07:07:00.248Z,14.30
2018-06-23T07:09:34.660Z,14.30
2018-06-23T07:12:09.220Z,14.00
2018-06-23T07:14:43.536Z,14.10
2018-06-23T07:19:52.046Z,14.50
2018-06-23T07:25:00.702Z,14.00
2018-06-23T07:27:35.043Z,13.10
2018-06-23T07:30:09.509Z,13.50
2018-06-23T07:32:43.774Z,13.80
2018-06-23T07:35:18.303Z,13.60
2018-06-23T07:37:52.536Z,13.30
2018-06-23T07:40:27.022Z,13.50
2018-06-23T07:43:01.448Z,13.40
2018-06-23T07:45:35.756Z,13.50
2018-06-23T07:48:10.121Z,14.00
2018-06-23T07:53:18.690Z,14.70
2018-06-23T07:55:53.123Z,13.90
2018-06-23T08:01:02.070Z,13.90
2018-06-23T08:11:19.926Z,15.10
2018-06-23T08:13:54.247Z,15.40
2018-06-23T08:16:28.677Z,15.70
2018-06-23T08:24:11.623Z,15.40
2018-06-23T08:29:20.150Z,15.60
2018-06-23T08:31:54.517Z,15.80
2018-06-23T08:34:28.832Z,16.00
2018-06-23T08:39:37.338Z,16.00
2018-06-23T08:42:11.642Z,16.00
2018-06-23T08:44:46.013Z,16.00
2018-06-23T08:52:28.928Z,15.80
2018-06-23T09:00:11.612Z,16.20
2018-06-23T09:02:46.141Z,15.60
2018-06-23T09:05:20.444Z,15.80
2018-06-23T09:07:54.671Z,16.10
2018-06-23T09:15:37.622Z,16.00
2018-06-23T09:20:46.012Z,15.50
2018-06-23T09:23:20.483Z,15.30
2018-06-23T09:28:28.917Z,15.80
2018-06-23T09:31:03.413Z,15.60
2018-06-23T09:33:37.650Z,15.30
2018-06-23T09:38:46.065Z,15.90
2018-06-23T09:41:20.295Z,16.10
2018-06-23T09:49:03.005Z,16.10
2018-06-23T09:51:37.271Z,16.10
2018-06-23T09:54:11.645Z,16.50
2018-06-23T09:56:45.937Z,16.80
2018-06-23T09:59:20.286Z,16.90
2018-06-23T10:01:54.607Z,16.60
2018-06-23T10:04:28.938Z,16.40
2018-06-23T10:09:37.291Z,17.10
2018-06-23T10:12:11.673Z,17.10
2018-06-23T10:17:20.171Z,16.40
2018-06-23T10:19:54.490Z,16.20
2018-06-23T10:22:28.831Z,16.50
2018-06-23T10:25:03.286Z,16.50
2018-06-23T10:27:37.769Z,17.00
2018-06-23T10:30:12.226Z,17.00
2018-06-23T10:35:20.547Z,17.50
2018-06-23T10:37:54.959Z,17.20
2018-06-23T10:40:29.212Z,17.00
2018-06-23T10:43:03.736Z,16.50
2018-06-23T10:45:38.177Z,16.30
2018-06-23T10:50:46.374Z,16.70
2018-06-23T10:53:23.750Z,16.90
2018-06-23T10:55:58.201Z,17.00
2018-06-23T11:01:06.964Z,17.70
2018-06-23T11:03:41.341Z,17.90
2018-06-23T11:06:15.744Z,18.00
2018-06-23T11:08:50.105Z,17.90
2018-06-23T11:11:24.451Z,17.90
2018-06-23T11:13:58.802Z,18.10
2018-06-23T11:16:33.132Z,17.50
2018-06-23T11:19:07.520Z,17.80
2018-06-23T11:21:41.878Z,18.00
2018-06-23T11:24:16.311Z,18.00
2018-06-23T11:26:50.924Z,18.00
2018-06-23T11:29:25.376Z,18.10
2018-06-23T11:34:33.921Z,18.20
2018-06-23T11:42:16.703Z,18.00
2018-06-23T11:47:25.210Z,18.00
2018-06-23T11:49:59.475Z,18.10
2018-06-23T11:52:33.775Z,17.80
2018-06-23T11:55:08.291Z,17.70
2018-06-23T12:00:16.913Z,17.90
2018-06-23T12:02:51.456Z,18.30
2018-06-23T12:05:25.915Z,18.50
2018-06-23T12:08:00.306Z,18.90
2018-06-23T12:10:34.678Z,18.80
2018-06-23T12:13:09.156Z,18.90
2018-06-23T12:20:52.032Z,18.90
2018-06-23T12:23:26.437Z,18.90
2018-06-23T12:28:34.966Z,19.10
2018-06-23T12:33:43.451Z,19.00
2018-06-23T12:38:51.963Z,19.40
2018-06-23T12:41:26.273Z,19.40
2018-06-23T12:44:00.708Z,19.30
2018-06-23T12:46:35.136Z,19.50
2018-06-23T12:49:09.611Z,19.40
2018-06-23T12:51:44.132Z,19.10
2018-06-23T12:56:52.829Z,18.40
2018-06-23T12:59:27.241Z,18.80
2018-06-23T13:02:01.554Z,19.30
2018-06-23T13:04:35.911Z,19.50
2018-06-23T13:07:10.301Z,19.40
2018-06-23T13:09:44.605Z,19.10
2018-06-23T13:12:19.224Z,19.20
2018-06-23T13:14:53.722Z,19.30
2018-06-23T13:17:28.148Z,19.30
2018-06-23T13:20:02.644Z,18.90
2018-06-23T13:22:37.062Z,18.70
2018-06-23T13:25:11.382Z,18.80
2018-06-23T13:27:45.830Z,19.10
2018-06-23T13:30:20.173Z,19.20
2018-06-23T13:32:54.543Z,19.30
2018-06-23T13:35:28.810Z,19.50
2018-06-23T13:38:03.348Z,19.90
2018-06-23T13:43:11.967Z,20.40
2018-06-23T13:50:54.669Z,19.40
2018-06-23T13:56:03.228Z,19.70
2018-06-23T13:58:37.560Z,19.80
2018-06-23T14:03:47.027Z,20.30
2018-06-23T14:06:21.317Z,20.20
2018-06-23T14:08:55.637Z,19.00
2018-06-23T14:11:30.043Z,18.70
2018-06-23T14:14:04.460Z,18.70
2018-06-23T14:16:39.075Z,18.80
2018-06-23T14:21:47.616Z,19.20
2018-06-23T14:24:22.025Z,19.50
2018-06-23T14:26:56.488Z,19.60
2018-06-23T14:29:30.947Z,19.80
2018-06-23T14:32:05.546Z,19.90
2018-06-23T14:34:39.833Z,19.80
2018-06-23T14:37:14.223Z,19.70
2018-06-23T14:39:48.511Z,19.50
2018-06-23T14:42:22.945Z,19.00
2018-06-23T14:44:57.370Z,19.10
2018-06-23T14:47:31.898Z,19.50
2018-06-23T14:50:06.265Z,19.80
2018-06-23T14:52:40.700Z,19.90
2018-06-23T14:55:15.010Z,19.70
2018-06-23T14:57:49.305Z,19.50
2018-06-23T15:00:23.690Z,19.50
2018-06-23T15:02:58.024Z,19.50
2018-06-23T15:05:32.510Z,19.60
2018-06-23T15:08:18.382Z,19.60
2018-06-23T15:13:32.856Z,19.80
2018-06-23T15:16:07.039Z,19.80
2018-06-23T15:18:41.507Z,19.90
2018-06-23T15:21:16.032Z,20.00
2018-06-23T15:23:50.378Z,19.90
2018-06-23T15:26:24.883Z,19.90
2018-06-23T15:28:59.303Z,19.80
2018-06-23T15:31:33.764Z,19.60
2018-06-23T15:34:08.162Z,19.40
2018-06-23T15:36:42.600Z,19.40
2018-06-23T15:39:17.013Z,19.30
2018-06-23T15:41:51.465Z,19.50
2018-06-23T15:44:25.781Z,19.60
2018-06-23T15:47:00.260Z,19.60
2018-06-23T15:49:34.633Z,19.70
2018-06-23T15:52:09.059Z,19.70
2018-06-23T15:54:43.522Z,19.70
2018-06-23T15:59:52.097Z,20.50
2018-06-23T16:05:00.330Z,20.30
2018-06-23T16:07:34.671Z,20.50
2018-06-23T16:10:14.639Z,20.50
2018-06-23T16:12:48.857Z,20.80
2018-06-23T16:15:23.236Z,21.60
2018-06-23T16:17:57.656Z,22.50
2018-06-23T16:20:31.976Z,22.30
2018-06-23T16:23:06.575Z,21.60
2018-06-23T16:25:40.854Z,21.20
2018-06-23T16:28:15.322Z,20.80
2018-06-23T16:30:49.593Z,20.90
2018-06-23T16:33:24.149Z,21.30
2018-06-23T16:35:58.390Z,21.40
2018-06-23T16:38:32.734Z,21.10
2018-06-23T16:41:07.050Z,20.70
2018-06-23T16:43:41.563Z,20.30
2018-06-23T16:46:15.886Z,20.40
2018-06-23T16:48:50.837Z,20.40
2018-06-23T16:51:25.246Z,20.10
2018-06-23T16:53:59.536Z,19.80
2018-06-23T16:56:33.999Z,19.50
2018-06-23T17:01:42.540Z,19.20
2018-06-23T17:04:17.014Z,19.30
2018-06-23T17:06:51.372Z,19.30
2018-06-23T17:09:26.254Z,19.20
2018-06-23T17:12:00.658Z,19.30
2018-06-23T17:14:35.182Z,19.30
2018-06-23T17:19:43.715Z,19.30
2018-06-23T17:22:18.100Z,19.10
2018-06-23T17:24:52.543Z,18.80
2018-06-23T17:27:26.816Z,18.70
2018-06-23T17:30:01.126Z,18.50
2018-06-23T17:32:35.475Z,18.40
2018-06-23T17:35:09.761Z,18.50
2018-06-23T17:40:18.293Z,18.30
2018-06-23T17:42:52.570Z,18.30
2018-06-23T17:45:26.865Z,18.30
2018-06-23T17:48:01.285Z,18.20
2018-06-23T17:50:35.610Z,18.10
2018-06-23T17:53:09.932Z,18.10
2018-06-23T17:55:44.435Z,18.10
2018-06-23T18:00:53.082Z,18.30
2018-06-23T18:03:27.455Z,18.30
2018-06-23T18:06:02.014Z,18.30
2018-06-23T18:08:36.277Z,18.30
2018-06-23T18:11:10.711Z,18.20
2018-06-23T18:13:44.995Z,18.20
2018-06-23T18:16:19.362Z,18.10
2018-06-23T18:18:53.850Z,18.10
2018-06-23T18:24:02.382Z,17.80
2018-06-23T18:26:36.671Z,17.70
2018-06-23T18:31:45.261Z,17.70
2018-06-23T18:34:19.602Z,17.60
2018-06-23T18:36:53.986Z,17.50
2018-06-23T18:42:02.393Z,17.30
2018-06-23T18:44:36.810Z,17.40
2018-06-23T18:47:11.207Z,17.30
2018-06-23T18:49:45.626Z,17.40
2018-06-23T18:52:20.041Z,17.40
2018-06-23T18:54:54.543Z,17.40
2018-06-23T18:57:29.015Z,17.40
2018-06-23T19:00:03.506Z,17.40
2018-06-23T19:02:38.149Z,17.50
2018-06-23T19:05:12.577Z,17.50
2018-06-23T19:07:46.878Z,17.50
2018-06-23T19:12:55.271Z,17.50
2018-06-23T19:15:29.697Z,17.50
2018-06-23T19:18:04.043Z,17.50
2018-06-23T19:20:38.465Z,17.50
2018-06-23T19:23:12.771Z,17.50
2018-06-23T19:25:47.241Z,17.50
2018-06-23T19:28:21.646Z,17.50
2018-06-23T19:30:56.072Z,17.50
2018-06-23T19:33:30.522Z,17.50
2018-06-23T19:36:04.883Z,17.50
2018-06-23T19:38:39.228Z,17.30
2018-06-23T19:41:21.079Z,17.30
2018-06-23T19:46:29.398Z,17.30
2018-06-23T19:49:03.659Z,17.30
2018-06-23T19:51:38.098Z,17.20
2018-06-23T19:54:12.488Z,17.10
2018-06-23T19:56:46.850Z,16.90
2018-06-23T19:59:21.295Z,16.50
2018-06-23T20:01:55.873Z,16.30
2018-06-23T20:04:30.480Z,16.40
2018-06-23T20:07:04.912Z,16.50
2018-06-23T20:09:39.175Z,16.60
2018-06-23T20:12:13.620Z,16.70
2018-06-23T20:14:48.125Z,16.60
2018-06-23T20:17:22.428Z,16.50
2018-06-23T20:19:56.768Z,16.40
2018-06-23T20:25:05.612Z,16.20
2018-06-23T20:37:56.956Z,16.40
2018-06-23T20:43:05.826Z,16.40
2018-06-23T20:45:40.313Z,16.40
2018-06-23T20:48:14.857Z,16.30
2018-06-23T20:50:49.256Z,16.30
2018-06-23T20:53:23.576Z,16.30
2018-06-23T20:55:57.924Z,16.40
2018-06-23T20:58:32.195Z,16.30
2018-06-23T21:01:06.462Z,16.20
2018-06-23T21:03:40.811Z,16.20
2018-06-23T21:06:15.160Z,16.10
2018-06-23T21:11:23.695Z,16.00
2018-06-23T21:16:32.107Z,16.10
2018-06-23T21:19:06.517Z,16.10
2018-06-23T21:21:40.830Z,16.00
2018-06-23T21:24:15.139Z,15.90
2018-06-23T21:26:49.506Z,16.00
2018-06-23T21:29:23.887Z,16.00
2018-06-23T21:34:32.344Z,16.10
2018-06-23T21:39:40.786Z,16.00
2018-06-23T21:42:15.248Z,15.90
2018-06-23T21:47:24.533Z,15.90
2018-06-23T21:49:58.789Z,15.90
2018-06-23T21:52:33.627Z,16.00
2018-06-23T21:55:08.027Z,16.00
2018-06-23T21:57:42.462Z,16.00
2018-06-23T22:02:55.378Z,16.00
2018-06-23T22:05:30.227Z,16.00
2018-06-23T22:08:06.397Z,16.00
2018-06-23T22:10:40.671Z,15.90
2018-06-23T22:13:15.164Z,15.90
2018-06-23T22:15:49.694Z,15.90
2018-06-23T22:18:24.029Z,15.70
2018-06-23T22:23:32.423Z,15.60
2018-06-23T22:26:06.741Z,15.60
2018-06-23T22:28:41.166Z,15.60
2018-06-23T22:31:15.547Z,15.70
2018-06-23T22:33:49.789Z,15.60
2018-06-23T22:36:24.154Z,15.70
2018-06-23T22:38:58.636Z,15.80
2018-06-23T22:41:32.976Z,15.70
2018-06-23T22:44:07.554Z,15.60
2018-06-23T22:46:42.035Z,15.50
2018-06-23T22:49:16.462Z,15.50
2018-06-23T22:51:50.800Z,15.40
2018-06-23T22:54:25.226Z,15.30
2018-06-23T22:56:59.492Z,15.30
2018-06-23T22:59:33.727Z,15.30
2018-06-23T23:02:08.063Z,15.20
2018-06-23T23:04:42.291Z,15.10
2018-06-23T23:09:50.760Z,15.10
2018-06-23T23:12:25.031Z,15.10
2018-06-23T23:14:59.305Z,15.10
2018-06-23T23:17:33.696Z,15.10
2018-06-23T23:20:08.175Z,15.00
2018-06-23T23:22:42.390Z,15.10
2018-06-23T23:25:16.677Z,15.10
2018-06-23T23:27:51.040Z,15.10
2018-06-23T23:30:25.530Z,15.10
2018-06-23T23:35:34.167Z,14.90
2018-06-23T23:38:08.461Z,14.90
2018-06-23T23:43:16.999Z,14.90
2018-06-23T23:45:51.260Z,14.90
2018-06-23T23:48:25.644Z,14.90
2018-06-23T23:56:08.659Z,14.80
2018-06-23T23:58:43.080Z,14.80
